Vincent, Alabama
Current Conditions -  °F | °C
As of 11:55 PM on Friday 19 Dec 2014 (Local Time) from KSCD Reporting Station
Light Rain Light Rain  
Wind Chill: 41°   Ceiling: 7000
Heat Index: 41°   Visibility: 5mi
Dew Point: 41°   Wind: 0mph
Humidity: 100%   Direction: NA
Pressure: 30.15"   Gusts: NA
Location:  33.38°N, 86.41°W
Report Text: KSCD 200555Z AUTO 00000KT 5SM -RA SCT046 SCT050 OVC070 05/05 A3015 RMK AO2 P0006 60024 T00510051 10076 20050 400921003
Loading
Personal Weather Stations






























Interactive Weather Map New forecast layout! Learn more

10-Day Weather Forecast

Advertisements
Track Severe Weather on mobile